createdAt,value
2017-11-24T00:03:53.112Z,7.73
2017-11-24T00:08:54.686Z,7.60
2017-11-24T00:13:56.983Z,9.70
2017-11-24T00:18:59.282Z,7.63
2017-11-24T00:24:00.833Z,6.67
2017-11-24T00:29:03.095Z,7.70
2017-11-24T00:34:04.656Z,7.17
2017-11-24T00:39:06.175Z,8.03
2017-11-24T02:07:55.094Z,6.93
2017-11-24T02:12:57.427Z,7.10
2017-11-24T02:17:58.937Z,8.00
2017-11-24T02:23:00.427Z,7.23
2017-11-24T02:28:01.999Z,7.90
2017-11-24T02:33:03.516Z,7.93
2017-11-24T02:38:05.037Z,7.17
2017-11-24T02:43:06.540Z,8.90
2017-11-24T02:53:43.458Z,8.30
2017-11-24T02:58:45.695Z,8.87
2017-11-24T03:03:47.203Z,8.47
2017-11-24T03:08:49.600Z,8.53
2017-11-24T03:13:51.843Z,8.57
2017-11-24T03:18:53.338Z,8.97
2017-11-24T03:23:55.596Z,7.60
2017-11-24T03:28:57.269Z,8.33
2017-11-24T03:33:58.823Z,8.43
2017-11-24T03:39:00.359Z,8.10
2017-11-24T03:44:02.023Z,8.00
2017-11-24T03:49:03.538Z,8.97
2017-11-24T03:54:05.054Z,9.03
2017-11-24T03:59:06.538Z,8.67
2017-11-24T04:04:08.038Z,7.90
2017-11-24T04:09:09.563Z,9.90
2017-11-24T04:14:11.128Z,8.60
2017-11-24T04:19:12.615Z,8.23
2017-11-24T04:24:14.133Z,9.43
2017-11-24T04:29:16.542Z,7.60
2017-11-24T04:34:18.040Z,8.50
2017-11-24T04:39:19.555Z,9.60
2017-11-24T04:44:21.791Z,8.40
2017-11-24T04:49:23.282Z,9.10
2017-11-24T04:54:24.785Z,9.73
2017-11-24T04:59:26.269Z,8.70
2017-11-24T05:04:34.988Z,9.03
2017-11-24T05:09:36.479Z,8.80
2017-11-24T05:14:37.993Z,7.83
2017-11-24T05:19:39.528Z,8.77
2017-11-24T05:24:41.076Z,9.40
2017-11-24T05:29:42.623Z,8.40
2017-11-24T05:34:44.862Z,8.87
2017-11-24T05:39:46.416Z,8.83
2017-11-24T05:44:47.912Z,9.67
2017-11-24T05:49:49.410Z,10.10
2017-11-24T05:54:50.930Z,9.40
2017-11-24T05:59:52.418Z,9.23
2017-11-24T06:04:53.903Z,9.40
2017-11-24T06:09:56.171Z,8.60
2017-11-24T06:14:58.684Z,9.17
2017-11-24T06:20:00.210Z,9.80
2017-11-24T06:25:01.746Z,9.70
2017-11-24T06:30:03.227Z,11.20
2017-11-24T06:35:05.070Z,10.40
2017-11-24T06:40:06.614Z,10.30
2017-11-24T06:45:08.883Z,10.93
2017-11-24T06:50:10.396Z,15.27
2017-11-24T06:55:11.914Z,12.97
2017-11-24T07:00:13.360Z,10.30
2017-11-24T07:05:15.053Z,10.67
2017-11-24T07:10:16.545Z,12.33
2017-11-24T07:15:18.083Z,10.00
2017-11-24T07:20:19.561Z,8.90
2017-11-24T07:25:21.823Z,9.10
2017-11-24T07:30:23.316Z,9.20
2017-11-24T07:35:25.566Z,9.33
2017-11-24T07:40:27.133Z,8.20
2017-11-24T07:45:28.642Z,10.60
2017-11-24T07:50:31.037Z,9.20
2017-11-24T07:55:33.293Z,9.43
2017-11-24T08:00:34.792Z,9.93
2017-11-24T08:05:36.306Z,11.07
2017-11-24T08:10:37.813Z,8.47
2017-11-24T08:15:40.097Z,9.13
2017-11-24T08:20:42.383Z,9.30
2017-11-24T08:25:44.702Z,9.83
2017-11-24T08:30:46.241Z,8.97
2017-11-24T08:35:48.486Z,9.07
2017-11-24T08:40:50.010Z,9.67
2017-11-24T08:45:51.532Z,8.47
2017-11-24T08:50:53.080Z,10.30
2017-11-24T08:55:54.551Z,8.30
2017-11-24T09:00:56.078Z,8.90
2017-11-24T09:05:57.577Z,9.10
2017-11-24T09:10:59.119Z,8.37
2017-11-24T09:16:00.672Z,9.07
2017-11-24T09:21:02.178Z,9.20
2017-11-24T09:26:03.724Z,8.70
2017-11-24T09:31:05.269Z,9.10
2017-11-24T09:36:06.771Z,8.50
2017-11-24T09:41:08.191Z,8.03
2017-11-24T09:46:10.457Z,8.83
2017-11-24T09:51:11.937Z,8.83
2017-11-24T09:56:14.344Z,8.40
2017-11-24T10:01:15.760Z,7.77
2017-11-24T10:06:17.235Z,9.40
2017-11-24T10:11:18.850Z,7.83
2017-11-24T10:16:20.344Z,8.50
2017-11-24T10:21:28.011Z,8.90
2017-11-24T10:26:30.290Z,9.10
2017-11-24T10:31:32.700Z,8.33
2017-11-24T10:36:34.234Z,9.00
2017-11-24T10:41:36.496Z,8.47
2017-11-24T10:46:38.006Z,7.90
2017-11-24T10:51:39.577Z,7.20
2017-11-24T10:56:41.087Z,7.80
2017-11-24T11:01:42.603Z,7.67
2017-11-24T11:06:44.893Z,6.60
2017-11-24T11:11:46.391Z,8.37
2017-11-24T11:16:47.956Z,7.70
2017-11-24T11:21:49.581Z,7.30
2017-11-24T11:26:51.987Z,6.80
2017-11-24T11:31:53.553Z,7.17
2017-11-24T11:36:55.107Z,8.23
2017-11-24T11:41:57.430Z,8.20
2017-11-24T11:46:58.904Z,7.67
2017-11-24T11:52:00.431Z,7.13
2017-11-24T11:57:02.675Z,6.70
2017-11-24T12:02:04.314Z,6.97
2017-11-24T12:07:05.954Z,6.50
2017-11-24T12:12:08.241Z,7.50
2017-11-24T12:17:10.682Z,6.30
2017-11-24T12:22:19.273Z,7.77
2017-11-24T12:27:20.816Z,7.80
2017-11-24T12:32:23.059Z,7.00
2017-11-24T12:37:24.611Z,8.13
2017-11-24T12:42:26.268Z,7.23
2017-11-24T12:47:27.718Z,6.90
2017-11-24T12:52:29.978Z,7.40
2017-11-24T12:57:31.499Z,8.30
2017-11-24T13:02:33.015Z,8.57
2017-11-24T13:07:34.528Z,8.13
2017-11-24T13:12:36.061Z,6.30
2017-11-24T13:17:38.383Z,7.40
2017-11-24T13:22:39.938Z,6.73
2017-11-24T13:27:41.498Z,8.30
2017-11-24T13:32:43.043Z,6.57
2017-11-24T13:37:44.581Z,7.20
2017-11-24T13:42:46.113Z,6.30
2017-11-24T13:47:47.648Z,6.57
2017-11-24T13:52:49.908Z,8.00
2017-11-24T13:57:51.443Z,7.73
2017-11-24T14:02:52.960Z,7.40
2017-11-24T14:07:54.464Z,8.07
2017-11-24T14:12:55.987Z,6.80
2017-11-24T14:17:57.526Z,7.80
2017-11-24T14:22:59.035Z,7.90
2017-11-24T14:28:01.370Z,7.67
2017-11-24T14:33:02.938Z,7.57
2017-11-24T14:38:04.469Z,7.67
2017-11-24T14:43:06.772Z,7.80
2017-11-24T14:48:08.286Z,7.97
2017-11-24T14:53:09.815Z,8.10
2017-11-24T14:58:11.366Z,7.67
2017-11-24T15:03:13.613Z,7.37
2017-11-24T15:08:15.175Z,1.53
2017-11-24T15:13:16.740Z,0.80
2017-11-24T15:18:18.255Z,0.90
2017-11-24T15:23:19.825Z,1.13
2017-11-24T15:28:21.375Z,0.90
2017-11-24T15:33:23.639Z,1.30
2017-11-24T15:38:25.169Z,0.90
2017-11-24T15:43:26.742Z,0.93
2017-11-24T15:48:28.306Z,0.97
2017-11-24T15:53:29.830Z,1.37
2017-11-24T15:58:32.266Z,1.00
2017-11-24T16:03:33.797Z,2.00
2017-11-24T16:08:36.061Z,3.30
2017-11-24T16:13:38.406Z,3.30
2017-11-24T16:18:39.926Z,3.50
2017-11-24T16:23:42.198Z,3.83
2017-11-24T16:28:44.608Z,2.07
2017-11-24T16:33:46.160Z,1.90
2017-11-24T16:38:48.462Z,2.50
2017-11-24T16:43:49.960Z,2.47
2017-11-24T16:48:51.485Z,2.43
2017-11-24T16:53:53.826Z,2.83
2017-11-24T16:58:55.390Z,3.03
2017-11-24T17:03:56.960Z,3.80
2017-11-24T17:08:58.477Z,3.40
2017-11-24T17:14:00.768Z,5.70
2017-11-24T17:19:03.204Z,4.23
2017-11-24T17:24:04.782Z,4.80
2017-11-24T17:29:06.358Z,4.20
2017-11-24T17:34:08.075Z,5.73
2017-11-24T17:39:09.651Z,5.60
2017-11-24T17:44:11.198Z,5.30
2017-11-24T17:49:13.558Z,5.73
2017-11-24T17:54:15.131Z,6.67
2017-11-24T17:59:17.417Z,5.33
2017-11-24T18:04:19.741Z,6.33
2017-11-24T18:09:21.311Z,6.47
2017-11-24T18:14:22.851Z,6.57
2017-11-24T18:19:25.164Z,7.37
2017-11-24T18:24:26.784Z,7.53
2017-11-24T18:29:29.105Z,8.77
2017-11-24T18:34:30.603Z,7.40
2017-11-24T18:39:32.335Z,8.47
2017-11-24T18:44:33.883Z,10.20
2017-11-24T18:49:36.211Z,8.40
2017-11-24T18:54:37.825Z,9.60
2017-11-24T18:59:39.416Z,8.60
2017-11-24T19:04:41.074Z,8.30
2017-11-24T19:09:43.266Z,8.63
2017-11-24T19:14:45.508Z,8.93
2017-11-24T19:19:47.044Z,11.20
2017-11-24T19:24:48.637Z,9.60
2017-11-24T19:29:50.210Z,11.17
2017-11-24T19:34:52.119Z,12.10
2017-11-24T19:39:53.832Z,9.90
2017-11-24T19:44:55.475Z,10.20
2017-11-24T19:49:57.725Z,12.00
2017-11-24T19:54:59.238Z,12.90
2017-11-24T20:00:00.759Z,13.40
2017-11-24T20:05:02.224Z,12.47
2017-11-24T20:10:03.802Z,13.60
2017-11-24T20:15:05.463Z,13.00
2017-11-24T20:20:07.119Z,12.50
2017-11-24T20:25:08.913Z,11.17
2017-11-24T20:30:11.247Z,9.07
2017-11-24T20:35:12.708Z,10.60
2017-11-24T20:40:15.024Z,10.47
2017-11-24T20:45:16.680Z,10.83
2017-11-24T20:50:18.351Z,9.83
2017-11-24T20:55:20.079Z,10.70
2017-11-24T21:00:22.480Z,13.73
2017-11-24T21:05:24.149Z,13.33
2017-11-24T21:10:26.501Z,12.03
2017-11-24T21:15:28.099Z,12.63
2017-11-24T21:20:30.451Z,11.97
2017-11-24T21:25:32.087Z,11.27
2017-11-24T21:30:33.697Z,12.53
2017-11-24T21:35:35.250Z,12.23
2017-11-24T21:40:36.816Z,12.60
2017-11-24T21:45:38.419Z,12.80
2017-11-24T21:50:40.722Z,14.47
2017-11-24T21:55:42.999Z,17.67
2017-11-24T22:00:45.319Z,17.13
2017-11-24T22:05:46.898Z,18.63
2017-11-24T22:10:48.554Z,17.10
2017-11-24T22:15:50.191Z,16.03
2017-11-24T22:20:52.479Z,18.60
2017-11-24T22:25:54.880Z,18.53
2017-11-24T22:30:56.445Z,19.00
2017-11-24T22:35:58.737Z,20.77
2017-11-24T22:41:00.270Z,21.67
2017-11-24T22:46:01.811Z,23.63
2017-11-24T22:51:03.357Z,23.40
2017-11-24T22:56:04.939Z,21.47
2017-11-24T23:01:06.492Z,24.83
2017-11-24T23:06:08.015Z,22.73
2017-11-24T23:11:09.528Z,21.67
2017-11-24T23:16:11.088Z,21.63
2017-11-24T23:21:12.645Z,24.70
2017-11-24T23:26:14.181Z,22.27
2017-11-24T23:31:15.686Z,27.07
2017-11-24T23:36:17.284Z,27.50
2017-11-24T23:41:18.826Z,26.43
2017-11-24T23:46:20.319Z,28.87
2017-11-24T23:51:21.794Z,26.60
2017-11-24T23:56:23.312Z,28.63
